sensor_id;sensor_type;location;lat;lon;timestamp;P1;durP1;ratioP1;P2;durP2;ratioP2
19535;SDS011;9913;51.168;4.124;2023-06-22T00:01:29;12.23;;;8.38;;
19535;SDS011;9913;51.168;4.124;2023-06-22T00:03:57;11.18;;;8.60;;
19535;SDS011;9913;51.168;4.124;2023-06-22T00:06:25;10.95;;;8.75;;
19535;SDS011;9913;51.168;4.124;2023-06-22T00:08:54;12.07;;;8.57;;
19535;SDS011;9913;51.168;4.124;2023-06-22T00:11:23;10.60;;;8.80;;
19535;SDS011;9913;51.168;4.124;2023-06-22T00:13:52;12.27;;;9.30;;
19535;SDS011;9913;51.168;4.124;2023-06-22T00:16:20;12.98;;;9.43;;
19535;SDS011;9913;51.168;4.124;2023-06-22T00:18:48;11.25;;;9.13;;
19535;SDS011;9913;51.168;4.124;2023-06-22T00:21:17;14.20;;;9.77;;
19535;SDS011;9913;51.168;4.124;2023-06-22T00:23:47;14.40;;;10.02;;
19535;SDS011;9913;51.168;4.124;2023-06-22T00:26:15;12.07;;;8.90;;
19535;SDS011;9913;51.168;4.124;2023-06-22T00:28:45;12.20;;;9.48;;
19535;SDS011;9913;51.168;4.124;2023-06-22T00:31:13;11.75;;;8.93;;
19535;SDS011;9913;51.168;4.124;2023-06-22T00:33:41;12.70;;;9.52;;
19535;SDS011;9913;51.168;4.124;2023-06-22T00:36:10;12.05;;;8.52;;
19535;SDS011;9913;51.168;4.124;2023-06-22T00:38:40;10.80;;;8.63;;
19535;SDS011;9913;51.168;4.124;2023-06-22T00:41:08;9.95;;;8.63;;
19535;SDS011;9913;51.168;4.124;2023-06-22T00:43:36;11.70;;;8.65;;
19535;SDS011;9913;51.168;4.124;2023-06-22T00:46:06;12.23;;;8.65;;
19535;SDS011;9913;51.168;4.124;2023-06-22T00:48:35;15.27;;;9.73;;
19535;SDS011;9913;51.168;4.124;2023-06-22T00:51:04;10.60;;;8.55;;
19535;SDS011;9913;51.168;4.124;2023-06-22T00:53:33;10.55;;;8.00;;
19535;SDS011;9913;51.168;4.124;2023-06-22T00:56:04;10.60;;;8.60;;
19535;SDS011;9913;51.168;4.124;2023-06-22T00:58:35;10.60;;;8.43;;
19535;SDS011;9913;51.168;4.124;2023-06-22T01:01:05;12.23;;;8.77;;
19535;SDS011;9913;51.168;4.124;2023-06-22T01:03:34;12.45;;;8.70;;
19535;SDS011;9913;51.168;4.124;2023-06-22T01:06:06;10.52;;;8.65;;
19535;SDS011;9913;51.168;4.124;2023-06-22T01:08:41;11.45;;;8.63;;
19535;SDS011;9913;51.168;4.124;2023-06-22T01:11:16;12.57;;;8.48;;
19535;SDS011;9913;51.168;4.124;2023-06-22T01:13:48;10.48;;;7.53;;
19535;SDS011;9913;51.168;4.124;2023-06-22T01:16:29;12.52;;;9.52;;
19535;SDS011;9913;51.168;4.124;2023-06-22T01:19:00;11.02;;;8.50;;
19535;SDS011;9913;51.168;4.124;2023-06-22T01:21:36;11.45;;;7.82;;
19535;SDS011;9913;51.168;4.124;2023-06-22T01:24:10;10.35;;;7.38;;
19535;SDS011;9913;51.168;4.124;2023-06-22T01:26:47;11.50;;;8.07;;
19535;SDS011;9913;51.168;4.124;2023-06-22T01:29:23;11.90;;;8.15;;
19535;SDS011;9913;51.168;4.124;2023-06-22T01:31:54;10.95;;;7.82;;
19535;SDS011;9913;51.168;4.124;2023-06-22T01:34:27;12.30;;;8.93;;
19535;SDS011;9913;51.168;4.124;2023-06-22T01:36:58;11.88;;;8.10;;
19535;SDS011;9913;51.168;4.124;2023-06-22T01:39:29;9.25;;;7.50;;
19535;SDS011;9913;51.168;4.124;2023-06-22T01:41:58;11.23;;;8.40;;
19535;SDS011;9913;51.168;4.124;2023-06-22T01:44:28;9.25;;;6.97;;
19535;SDS011;9913;51.168;4.124;2023-06-22T01:46:57;9.70;;;7.95;;
19535;SDS011;9913;51.168;4.124;2023-06-22T01:49:26;9.68;;;7.68;;
19535;SDS011;9913;51.168;4.124;2023-06-22T01:51:56;11.30;;;8.02;;
19535;SDS011;9913;51.168;4.124;2023-06-22T01:54:27;10.27;;;7.80;;
19535;SDS011;9913;51.168;4.124;2023-06-22T01:56:55;10.77;;;8.25;;
19535;SDS011;9913;51.168;4.124;2023-06-22T01:59:25;9.85;;;7.40;;
19535;SDS011;9913;51.168;4.124;2023-06-22T02:02:00;9.95;;;7.38;;
19535;SDS011;9913;51.168;4.124;2023-06-22T02:04:34;10.45;;;7.00;;
19535;SDS011;9913;51.168;4.124;2023-06-22T02:07:05;9.27;;;6.97;;
19535;SDS011;9913;51.168;4.124;2023-06-22T02:09:38;9.68;;;7.03;;
19535;SDS011;9913;51.168;4.124;2023-06-22T02:12:08;9.10;;;6.63;;
19535;SDS011;9913;51.168;4.124;2023-06-22T02:14:39;10.02;;;8.05;;
19535;SDS011;9913;51.168;4.124;2023-06-22T02:17:10;10.95;;;7.80;;
19535;SDS011;9913;51.168;4.124;2023-06-22T02:19:40;11.13;;;7.72;;
19535;SDS011;9913;51.168;4.124;2023-06-22T02:22:09;8.90;;;7.43;;
19535;SDS011;9913;51.168;4.124;2023-06-22T02:24:40;9.90;;;7.35;;
19535;SDS011;9913;51.168;4.124;2023-06-22T02:27:08;9.65;;;7.68;;
19535;SDS011;9913;51.168;4.124;2023-06-22T02:29:37;10.13;;;7.70;;
19535;SDS011;9913;51.168;4.124;2023-06-22T02:32:05;11.98;;;8.48;;
19535;SDS011;9913;51.168;4.124;2023-06-22T02:34:36;13.00;;;8.10;;
19535;SDS011;9913;51.168;4.124;2023-06-22T02:37:04;9.68;;;7.75;;
19535;SDS011;9913;51.168;4.124;2023-06-22T02:39:32;10.85;;;8.10;;
19535;SDS011;9913;51.168;4.124;2023-06-22T02:42:01;10.82;;;7.50;;
19535;SDS011;9913;51.168;4.124;2023-06-22T02:44:29;10.57;;;7.65;;
19535;SDS011;9913;51.168;4.124;2023-06-22T02:46:58;12.10;;;8.57;;
19535;SDS011;9913;51.168;4.124;2023-06-22T02:49:26;9.93;;;8.20;;
19535;SDS011;9913;51.168;4.124;2023-06-22T02:51:56;10.02;;;8.02;;
19535;SDS011;9913;51.168;4.124;2023-06-22T02:54:25;9.32;;;7.38;;
19535;SDS011;9913;51.168;4.124;2023-06-22T02:56:54;11.38;;;7.75;;
19535;SDS011;9913;51.168;4.124;2023-06-22T02:59:22;10.80;;;8.45;;
19535;SDS011;9913;51.168;4.124;2023-06-22T03:01:59;10.88;;;8.20;;
19535;SDS011;9913;51.168;4.124;2023-06-22T03:04:30;11.18;;;7.88;;
19535;SDS011;9913;51.168;4.124;2023-06-22T03:07:00;10.85;;;8.13;;
19535;SDS011;9913;51.168;4.124;2023-06-22T03:09:31;10.85;;;8.20;;
19535;SDS011;9913;51.168;4.124;2023-06-22T03:12:00;11.50;;;7.57;;
19535;SDS011;9913;51.168;4.124;2023-06-22T03:14:41;13.98;;;7.55;;
19535;SDS011;9913;51.168;4.124;2023-06-22T03:17:09;10.63;;;7.47;;
19535;SDS011;9913;51.168;4.124;2023-06-22T03:19:38;12.43;;;7.80;;
19535;SDS011;9913;51.168;4.124;2023-06-22T03:22:08;11.43;;;7.32;;
19535;SDS011;9913;51.168;4.124;2023-06-22T03:24:39;10.30;;;7.68;;
19535;SDS011;9913;51.168;4.124;2023-06-22T03:27:08;11.18;;;7.25;;
19535;SDS011;9913;51.168;4.124;2023-06-22T03:29:36;8.18;;;6.35;;
19535;SDS011;9913;51.168;4.124;2023-06-22T03:32:05;13.02;;;8.05;;
19535;SDS011;9913;51.168;4.124;2023-06-22T03:34:34;10.15;;;7.43;;
19535;SDS011;9913;51.168;4.124;2023-06-22T03:37:03;13.05;;;7.93;;
19535;SDS011;9913;51.168;4.124;2023-06-22T03:39:33;10.20;;;7.85;;
19535;SDS011;9913;51.168;4.124;2023-06-22T03:42:03;11.15;;;8.23;;
19535;SDS011;9913;51.168;4.124;2023-06-22T03:44:31;9.25;;;7.32;;
19535;SDS011;9913;51.168;4.124;2023-06-22T03:47:00;10.05;;;6.78;;
19535;SDS011;9913;51.168;4.124;2023-06-22T03:49:28;10.23;;;7.05;;
19535;SDS011;9913;51.168;4.124;2023-06-22T03:51:57;11.23;;;7.70;;
19535;SDS011;9913;51.168;4.124;2023-06-22T03:54:25;11.90;;;8.25;;
19535;SDS011;9913;51.168;4.124;2023-06-22T03:56:55;11.18;;;7.60;;
19535;SDS011;9913;51.168;4.124;2023-06-22T03:59:24;10.48;;;7.68;;
19535;SDS011;9913;51.168;4.124;2023-06-22T04:01:53;11.65;;;7.35;;
19535;SDS011;9913;51.168;4.124;2023-06-22T04:04:21;11.30;;;7.35;;
19535;SDS011;9913;51.168;4.124;2023-06-22T04:06:50;11.30;;;7.70;;
19535;SDS011;9913;51.168;4.124;2023-06-22T04:09:18;10.65;;;6.82;;
19535;SDS011;9913;51.168;4.124;2023-06-22T04:11:48;10.93;;;7.65;;
19535;SDS011;9913;51.168;4.124;2023-06-22T04:14:17;9.43;;;6.78;;
19535;SDS011;9913;51.168;4.124;2023-06-22T04:16:46;11.68;;;7.90;;
19535;SDS011;9913;51.168;4.124;2023-06-22T04:19:14;13.02;;;8.25;;
19535;SDS011;9913;51.168;4.124;2023-06-22T04:21:44;10.93;;;7.75;;
19535;SDS011;9913;51.168;4.124;2023-06-22T04:24:15;10.95;;;7.47;;
19535;SDS011;9913;51.168;4.124;2023-06-22T04:26:43;12.55;;;8.02;;
19535;SDS011;9913;51.168;4.124;2023-06-22T04:29:13;11.52;;;7.45;;
19535;SDS011;9913;51.168;4.124;2023-06-22T04:31:43;10.82;;;7.80;;
19535;SDS011;9913;51.168;4.124;2023-06-22T04:34:12;11.90;;;7.70;;
19535;SDS011;9913;51.168;4.124;2023-06-22T04:36:43;9.65;;;6.95;;
19535;SDS011;9913;51.168;4.124;2023-06-22T04:39:11;12.10;;;7.70;;
19535;SDS011;9913;51.168;4.124;2023-06-22T04:41:40;12.02;;;7.63;;
19535;SDS011;9913;51.168;4.124;2023-06-22T04:44:11;13.20;;;7.43;;
19535;SDS011;9913;51.168;4.124;2023-06-22T04:46:40;11.02;;;7.80;;
19535;SDS011;9913;51.168;4.124;2023-06-22T04:49:09;11.38;;;7.53;;
19535;SDS011;9913;51.168;4.124;2023-06-22T04:51:41;12.35;;;7.90;;
19535;SDS011;9913;51.168;4.124;2023-06-22T04:54:10;14.88;;;9.00;;
19535;SDS011;9913;51.168;4.124;2023-06-22T04:56:38;14.75;;;8.00;;
19535;SDS011;9913;51.168;4.124;2023-06-22T04:59:07;13.63;;;8.23;;
19535;SDS011;9913;51.168;4.124;2023-06-22T05:01:39;12.38;;;8.70;;
19535;SDS011;9913;51.168;4.124;2023-06-22T05:04:09;13.13;;;8.27;;
19535;SDS011;9913;51.168;4.124;2023-06-22T05:06:38;16.35;;;9.00;;
19535;SDS011;9913;51.168;4.124;2023-06-22T05:09:07;12.60;;;9.25;;
19535;SDS011;9913;51.168;4.124;2023-06-22T05:11:35;15.45;;;9.40;;
19535;SDS011;9913;51.168;4.124;2023-06-22T05:14:03;12.98;;;9.48;;
19535;SDS011;9913;51.168;4.124;2023-06-22T05:16:32;13.77;;;9.90;;
19535;SDS011;9913;51.168;4.124;2023-06-22T05:19:00;13.38;;;10.20;;
19535;SDS011;9913;51.168;4.124;2023-06-22T05:21:31;15.05;;;10.07;;
19535;SDS011;9913;51.168;4.124;2023-06-22T05:24:00;15.38;;;10.27;;
19535;SDS011;9913;51.168;4.124;2023-06-22T05:26:29;16.20;;;10.43;;
19535;SDS011;9913;51.168;4.124;2023-06-22T05:28:59;14.93;;;10.07;;
19535;SDS011;9913;51.168;4.124;2023-06-22T05:31:29;15.27;;;11.13;;
19535;SDS011;9913;51.168;4.124;2023-06-22T05:33:58;14.60;;;9.57;;
19535;SDS011;9913;51.168;4.124;2023-06-22T05:36:27;13.77;;;10.15;;
19535;SDS011;9913;51.168;4.124;2023-06-22T05:38:57;16.42;;;11.57;;
19535;SDS011;9913;51.168;4.124;2023-06-22T05:41:26;15.27;;;9.93;;
19535;SDS011;9913;51.168;4.124;2023-06-22T05:43:54;15.63;;;10.95;;
19535;SDS011;9913;51.168;4.124;2023-06-22T05:46:22;19.33;;;12.75;;
19535;SDS011;9913;51.168;4.124;2023-06-22T05:48:51;15.80;;;11.57;;
19535;SDS011;9913;51.168;4.124;2023-06-22T05:51:19;17.63;;;13.15;;
19535;SDS011;9913;51.168;4.124;2023-06-22T05:53:47;17.02;;;12.13;;
19535;SDS011;9913;51.168;4.124;2023-06-22T05:56:18;20.20;;;12.90;;
19535;SDS011;9913;51.168;4.124;2023-06-22T05:58:46;18.42;;;12.98;;
19535;SDS011;9913;51.168;4.124;2023-06-22T06:01:14;19.90;;;13.30;;
19535;SDS011;9913;51.168;4.124;2023-06-22T06:03:43;20.30;;;12.82;;
19535;SDS011;9913;51.168;4.124;2023-06-22T06:06:11;20.00;;;12.93;;
19535;SDS011;9913;51.168;4.124;2023-06-22T06:08:40;20.15;;;13.35;;
19535;SDS011;9913;51.168;4.124;2023-06-22T06:11:08;16.88;;;13.10;;
19535;SDS011;9913;51.168;4.124;2023-06-22T06:13:38;18.75;;;13.80;;
19535;SDS011;9913;51.168;4.124;2023-06-22T06:16:06;17.15;;;13.70;;
19535;SDS011;9913;51.168;4.124;2023-06-22T06:18:35;17.80;;;13.32;;
19535;SDS011;9913;51.168;4.124;2023-06-22T06:21:04;16.48;;;12.73;;
19535;SDS011;9913;51.168;4.124;2023-06-22T06:23:32;17.38;;;14.30;;
19535;SDS011;9913;51.168;4.124;2023-06-22T06:26:00;21.20;;;15.30;;
19535;SDS011;9913;51.168;4.124;2023-06-22T06:28:29;17.77;;;13.65;;
19535;SDS011;9913;51.168;4.124;2023-06-22T06:31:04;22.80;;;14.98;;
19535;SDS011;9913;51.168;4.124;2023-06-22T06:33:34;20.85;;;15.23;;
19535;SDS011;9913;51.168;4.124;2023-06-22T06:36:02;20.52;;;15.95;;
19535;SDS011;9913;51.168;4.124;2023-06-22T06:38:30;24.88;;;17.45;;
19535;SDS011;9913;51.168;4.124;2023-06-22T06:40:59;23.83;;;15.82;;
19535;SDS011;9913;51.168;4.124;2023-06-22T06:43:27;34.13;;;16.95;;
19535;SDS011;9913;51.168;4.124;2023-06-22T06:45:56;27.88;;;17.73;;
19535;SDS011;9913;51.168;4.124;2023-06-22T06:48:25;22.60;;;16.70;;
19535;SDS011;9913;51.168;4.124;2023-06-22T06:50:53;23.10;;;17.70;;
19535;SDS011;9913;51.168;4.124;2023-06-22T06:53:22;22.92;;;16.55;;
19535;SDS011;9913;51.168;4.124;2023-06-22T06:55:50;23.98;;;17.90;;
19535;SDS011;9913;51.168;4.124;2023-06-22T06:58:18;27.35;;;18.77;;
19535;SDS011;9913;51.168;4.124;2023-06-22T07:00:47;32.67;;;18.50;;
19535;SDS011;9913;51.168;4.124;2023-06-22T07:03:15;27.50;;;18.35;;
19535;SDS011;9913;51.168;4.124;2023-06-22T07:05:45;27.13;;;18.60;;
19535;SDS011;9913;51.168;4.124;2023-06-22T07:08:13;25.50;;;19.55;;
19535;SDS011;9913;51.168;4.124;2023-06-22T07:10:44;27.77;;;20.73;;
19535;SDS011;9913;51.168;4.124;2023-06-22T07:13:12;24.05;;;20.30;;
19535;SDS011;9913;51.168;4.124;2023-06-22T07:15:40;25.55;;;20.27;;
19535;SDS011;9913;51.168;4.124;2023-06-22T07:18:08;25.88;;;18.95;;
19535;SDS011;9913;51.168;4.124;2023-06-22T07:20:37;28.17;;;20.58;;
19535;SDS011;9913;51.168;4.124;2023-06-22T07:23:09;26.15;;;20.40;;
19535;SDS011;9913;51.168;4.124;2023-06-22T07:25:37;27.25;;;19.73;;
19535;SDS011;9913;51.168;4.124;2023-06-22T07:28:06;28.38;;;21.42;;
19535;SDS011;9913;51.168;4.124;2023-06-22T07:30:35;30.15;;;21.30;;
19535;SDS011;9913;51.168;4.124;2023-06-22T07:33:03;29.15;;;22.63;;
19535;SDS011;9913;51.168;4.124;2023-06-22T07:35:35;24.08;;;20.05;;
19535;SDS011;9913;51.168;4.124;2023-06-22T07:38:04;25.90;;;21.25;;
19535;SDS011;9913;51.168;4.124;2023-06-22T07:40:33;24.77;;;20.52;;
19535;SDS011;9913;51.168;4.124;2023-06-22T07:43:02;27.55;;;20.27;;
19535;SDS011;9913;51.168;4.124;2023-06-22T07:45:31;27.85;;;22.05;;
19535;SDS011;9913;51.168;4.124;2023-06-22T07:48:01;27.15;;;20.20;;
19535;SDS011;9913;51.168;4.124;2023-06-22T07:50:30;25.05;;;19.27;;
19535;SDS011;9913;51.168;4.124;2023-06-22T07:52:58;22.90;;;19.25;;
19535;SDS011;9913;51.168;4.124;2023-06-22T07:55:27;24.88;;;19.65;;
19535;SDS011;9913;51.168;4.124;2023-06-22T07:57:57;24.17;;;19.35;;
19535;SDS011;9913;51.168;4.124;2023-06-22T08:00:25;22.58;;;18.17;;
19535;SDS011;9913;51.168;4.124;2023-06-22T08:02:54;20.70;;;17.58;;
19535;SDS011;9913;51.168;4.124;2023-06-22T08:05:23;19.13;;;16.73;;
19535;SDS011;9913;51.168;4.124;2023-06-22T08:07:51;20.13;;;17.08;;
19535;SDS011;9913;51.168;4.124;2023-06-22T08:10:20;20.23;;;16.50;;
19535;SDS011;9913;51.168;4.124;2023-06-22T08:12:49;18.70;;;16.48;;
19535;SDS011;9913;51.168;4.124;2023-06-22T08:15:19;17.40;;;15.52;;
19535;SDS011;9913;51.168;4.124;2023-06-22T08:17:48;19.42;;;17.20;;
19535;SDS011;9913;51.168;4.124;2023-06-22T08:20:19;20.83;;;17.08;;
19535;SDS011;9913;51.168;4.124;2023-06-22T08:22:47;17.40;;;15.38;;
19535;SDS011;9913;51.168;4.124;2023-06-22T08:25:16;20.17;;;15.45;;
19535;SDS011;9913;51.168;4.124;2023-06-22T08:27:44;17.67;;;14.73;;
19535;SDS011;9913;51.168;4.124;2023-06-22T08:30:15;20.50;;;15.27;;
19535;SDS011;9913;51.168;4.124;2023-06-22T08:32:45;19.40;;;15.77;;
19535;SDS011;9913;51.168;4.124;2023-06-22T08:35:13;17.20;;;14.98;;
19535;SDS011;9913;51.168;4.124;2023-06-22T08:37:42;17.55;;;15.30;;
19535;SDS011;9913;51.168;4.124;2023-06-22T08:40:12;19.52;;;16.08;;
19535;SDS011;9913;51.168;4.124;2023-06-22T08:42:40;19.17;;;16.13;;
19535;SDS011;9913;51.168;4.124;2023-06-22T08:45:09;18.90;;;15.55;;
19535;SDS011;9913;51.168;4.124;2023-06-22T08:47:38;17.40;;;15.50;;
19535;SDS011;9913;51.168;4.124;2023-06-22T08:50:09;21.38;;;16.42;;
19535;SDS011;9913;51.168;4.124;2023-06-22T08:52:39;20.58;;;15.90;;
19535;SDS011;9913;51.168;4.124;2023-06-22T08:55:09;19.92;;;17.88;;
19535;SDS011;9913;51.168;4.124;2023-06-22T08:57:37;20.92;;;18.00;;
19535;SDS011;9913;51.168;4.124;2023-06-22T09:00:07;21.15;;;18.35;;
19535;SDS011;9913;51.168;4.124;2023-06-22T09:02:46;22.10;;;18.38;;
19535;SDS011;9913;51.168;4.124;2023-06-22T09:05:17;21.55;;;18.67;;
19535;SDS011;9913;51.168;4.124;2023-06-22T09:07:45;23.02;;;17.70;;
19535;SDS011;9913;51.168;4.124;2023-06-22T09:10:14;23.20;;;18.27;;
19535;SDS011;9913;51.168;4.124;2023-06-22T09:12:42;20.08;;;17.15;;
19535;SDS011;9913;51.168;4.124;2023-06-22T09:15:11;23.48;;;18.20;;
19535;SDS011;9913;51.168;4.124;2023-06-22T09:17:54;23.83;;;17.95;;
19535;SDS011;9913;51.168;4.124;2023-06-22T09:20:30;22.30;;;17.60;;
19535;SDS011;9913;51.168;4.124;2023-06-22T09:22:59;22.55;;;17.95;;
19535;SDS011;9913;51.168;4.124;2023-06-22T09:25:28;21.45;;;17.25;;
19535;SDS011;9913;51.168;4.124;2023-06-22T09:27:56;21.50;;;17.23;;
19535;SDS011;9913;51.168;4.124;2023-06-22T09:30:25;19.63;;;17.13;;
19535;SDS011;9913;51.168;4.124;2023-06-22T09:32:53;18.60;;;16.48;;
19535;SDS011;9913;51.168;4.124;2023-06-22T09:35:22;20.58;;;15.90;;
19535;SDS011;9913;51.168;4.124;2023-06-22T09:37:51;15.93;;;14.18;;
19535;SDS011;9913;51.168;4.124;2023-06-22T09:40:22;17.42;;;15.05;;
19535;SDS011;9913;51.168;4.124;2023-06-22T09:42:50;18.30;;;14.82;;
19535;SDS011;9913;51.168;4.124;2023-06-22T09:45:18;18.02;;;14.50;;
19535;SDS011;9913;51.168;4.124;2023-06-22T09:47:46;17.48;;;14.02;;
19535;SDS011;9913;51.168;4.124;2023-06-22T09:50:15;16.83;;;14.23;;
19535;SDS011;9913;51.168;4.124;2023-06-22T09:52:44;17.95;;;14.00;;
19535;SDS011;9913;51.168;4.124;2023-06-22T09:55:18;17.88;;;14.10;;
19535;SDS011;9913;51.168;4.124;2023-06-22T09:57:47;17.30;;;14.65;;
19535;SDS011;9913;51.168;4.124;2023-06-22T10:00:16;17.02;;;14.00;;
19535;SDS011;9913;51.168;4.124;2023-06-22T10:02:45;17.63;;;14.68;;
19535;SDS011;9913;51.168;4.124;2023-06-22T10:05:14;19.27;;;15.10;;
19535;SDS011;9913;51.168;4.124;2023-06-22T10:07:43;16.30;;;14.05;;
19535;SDS011;9913;51.168;4.124;2023-06-22T10:10:12;19.70;;;15.80;;
19535;SDS011;9913;51.168;4.124;2023-06-22T10:12:55;16.58;;;14.07;;
19535;SDS011;9913;51.168;4.124;2023-06-22T10:15:24;18.05;;;14.60;;
19535;SDS011;9913;51.168;4.124;2023-06-22T10:17:54;18.73;;;14.48;;
19535;SDS011;9913;51.168;4.124;2023-06-22T10:20:22;15.52;;;13.43;;
19535;SDS011;9913;51.168;4.124;2023-06-22T10:22:52;15.85;;;12.73;;
19535;SDS011;9913;51.168;4.124;2023-06-22T10:25:23;16.15;;;12.60;;
19535;SDS011;9913;51.168;4.124;2023-06-22T10:27:56;15.70;;;13.27;;
19535;SDS011;9913;51.168;4.124;2023-06-22T10:30:24;21.58;;;14.65;;
19535;SDS011;9913;51.168;4.124;2023-06-22T10:32:53;17.05;;;12.90;;
19535;SDS011;9913;51.168;4.124;2023-06-22T10:35:21;18.48;;;14.20;;
19535;SDS011;9913;51.168;4.124;2023-06-22T10:37:49;18.95;;;13.55;;
19535;SDS011;9913;51.168;4.124;2023-06-22T10:40:18;18.67;;;13.95;;
19535;SDS011;9913;51.168;4.124;2023-06-22T10:42:47;20.17;;;14.40;;
19535;SDS011;9913;51.168;4.124;2023-06-22T10:45:18;17.75;;;13.70;;
19535;SDS011;9913;51.168;4.124;2023-06-22T10:47:46;18.27;;;13.90;;
19535;SDS011;9913;51.168;4.124;2023-06-22T10:50:14;19.95;;;14.50;;
19535;SDS011;9913;51.168;4.124;2023-06-22T10:52:43;18.65;;;14.30;;
19535;SDS011;9913;51.168;4.124;2023-06-22T10:55:11;21.75;;;15.55;;
19535;SDS011;9913;51.168;4.124;2023-06-22T10:57:39;20.95;;;15.68;;
19535;SDS011;9913;51.168;4.124;2023-06-22T11:00:11;18.73;;;15.27;;
19535;SDS011;9913;51.168;4.124;2023-06-22T11:02:41;25.42;;;18.00;;
19535;SDS011;9913;51.168;4.124;2023-06-22T11:05:11;21.33;;;15.85;;
19535;SDS011;9913;51.168;4.124;2023-06-22T11:07:41;23.70;;;16.63;;
19535;SDS011;9913;51.168;4.124;2023-06-22T11:10:15;20.48;;;15.43;;
19535;SDS011;9913;51.168;4.124;2023-06-22T11:12:44;23.52;;;16.67;;
19535;SDS011;9913;51.168;4.124;2023-06-22T11:15:12;23.33;;;17.13;;
19535;SDS011;9913;51.168;4.124;2023-06-22T11:17:42;24.35;;;17.42;;
19535;SDS011;9913;51.168;4.124;2023-06-22T11:20:11;25.65;;;18.67;;
19535;SDS011;9913;51.168;4.124;2023-06-22T11:22:40;25.70;;;19.23;;
19535;SDS011;9913;51.168;4.124;2023-06-22T11:25:08;25.55;;;19.08;;
19535;SDS011;9913;51.168;4.124;2023-06-22T11:27:38;35.25;;;23.65;;
19535;SDS011;9913;51.168;4.124;2023-06-22T11:30:07;38.33;;;25.52;;
19535;SDS011;9913;51.168;4.124;2023-06-22T11:32:36;26.63;;;20.80;;
19535;SDS011;9913;51.168;4.124;2023-06-22T11:35:06;32.38;;;22.42;;
19535;SDS011;9913;51.168;4.124;2023-06-22T11:37:35;29.95;;;22.02;;
19535;SDS011;9913;51.168;4.124;2023-06-22T11:40:03;30.73;;;24.45;;
19535;SDS011;9913;51.168;4.124;2023-06-22T11:42:35;35.90;;;25.25;;
19535;SDS011;9913;51.168;4.124;2023-06-22T11:45:04;33.55;;;22.75;;
19535;SDS011;9913;51.168;4.124;2023-06-22T11:47:33;43.67;;;24.65;;
19535;SDS011;9913;51.168;4.124;2023-06-22T11:50:01;29.83;;;21.13;;
19535;SDS011;9913;51.168;4.124;2023-06-22T11:52:32;23.23;;;17.67;;
19535;SDS011;9913;51.168;4.124;2023-06-22T11:55:02;20.80;;;15.40;;
19535;SDS011;9913;51.168;4.124;2023-06-22T11:57:32;25.70;;;15.82;;
19535;SDS011;9913;51.168;4.124;2023-06-22T12:00:01;21.17;;;16.23;;
19535;SDS011;9913;51.168;4.124;2023-06-22T12:02:38;25.20;;;17.33;;
19535;SDS011;9913;51.168;4.124;2023-06-22T12:05:07;23.40;;;17.15;;
19535;SDS011;9913;51.168;4.124;2023-06-22T12:07:37;27.83;;;19.50;;
19535;SDS011;9913;51.168;4.124;2023-06-22T12:10:05;26.98;;;19.70;;
19535;SDS011;9913;51.168;4.124;2023-06-22T12:12:34;27.55;;;20.42;;
19535;SDS011;9913;51.168;4.124;2023-06-22T12:15:03;26.02;;;21.30;;
19535;SDS011;9913;51.168;4.124;2023-06-22T12:17:32;31.48;;;23.90;;
19535;SDS011;9913;51.168;4.124;2023-06-22T12:20:01;31.77;;;23.92;;
19535;SDS011;9913;51.168;4.124;2023-06-22T12:22:32;30.30;;;22.27;;
19535;SDS011;9913;51.168;4.124;2023-06-22T12:25:02;30.95;;;23.30;;
19535;SDS011;9913;51.168;4.124;2023-06-22T12:27:31;27.10;;;21.30;;
19535;SDS011;9913;51.168;4.124;2023-06-22T12:29:59;36.72;;;25.42;;
19535;SDS011;9913;51.168;4.124;2023-06-22T12:32:29;30.75;;;24.20;;
19535;SDS011;9913;51.168;4.124;2023-06-22T12:34:57;38.55;;;26.65;;
19535;SDS011;9913;51.168;4.124;2023-06-22T12:37:26;31.15;;;24.33;;
19535;SDS011;9913;51.168;4.124;2023-06-22T12:39:55;34.08;;;24.27;;
19535;SDS011;9913;51.168;4.124;2023-06-22T12:42:24;31.98;;;23.58;;
19535;SDS011;9913;51.168;4.124;2023-06-22T12:44:54;31.70;;;23.23;;
19535;SDS011;9913;51.168;4.124;2023-06-22T12:47:23;38.97;;;27.83;;
19535;SDS011;9913;51.168;4.124;2023-06-22T12:49:51;32.20;;;24.10;;
19535;SDS011;9913;51.168;4.124;2023-06-22T12:52:19;35.00;;;26.60;;
19535;SDS011;9913;51.168;4.124;2023-06-22T12:54:48;32.13;;;23.55;;
19535;SDS011;9913;51.168;4.124;2023-06-22T12:57:21;35.67;;;27.77;;
19535;SDS011;9913;51.168;4.124;2023-06-22T12:59:51;31.80;;;24.33;;
19535;SDS011;9913;51.168;4.124;2023-06-22T13:02:19;42.15;;;32.88;;
19535;SDS011;9913;51.168;4.124;2023-06-22T13:04:48;42.42;;;28.30;;
19535;SDS011;9913;51.168;4.124;2023-06-22T13:07:16;27.95;;;23.23;;
19535;SDS011;9913;51.168;4.124;2023-06-22T13:09:49;33.00;;;25.23;;
19535;SDS011;9913;51.168;4.124;2023-06-22T13:12:19;33.15;;;24.83;;
19535;SDS011;9913;51.168;4.124;2023-06-22T13:14:48;38.08;;;27.73;;
19535;SDS011;9913;51.168;4.124;2023-06-22T13:17:18;31.05;;;25.25;;
19535;SDS011;9913;51.168;4.124;2023-06-22T13:19:46;38.53;;;28.52;;
19535;SDS011;9913;51.168;4.124;2023-06-22T13:22:28;34.60;;;27.55;;
19535;SDS011;9913;51.168;4.124;2023-06-22T13:24:58;35.97;;;28.45;;
19535;SDS011;9913;51.168;4.124;2023-06-22T13:27:27;36.10;;;28.05;;
19535;SDS011;9913;51.168;4.124;2023-06-22T13:29:55;40.35;;;29.20;;
19535;SDS011;9913;51.168;4.124;2023-06-22T13:32:25;34.47;;;27.83;;
19535;SDS011;9913;51.168;4.124;2023-06-22T13:34:54;34.88;;;27.15;;
19535;SDS011;9913;51.168;4.124;2023-06-22T13:37:22;40.80;;;31.15;;
19535;SDS011;9913;51.168;4.124;2023-06-22T13:39:50;43.08;;;32.55;;
19535;SDS011;9913;51.168;4.124;2023-06-22T13:42:19;51.08;;;36.58;;
19535;SDS011;9913;51.168;4.124;2023-06-22T13:44:47;33.72;;;28.58;;
19535;SDS011;9913;51.168;4.124;2023-06-22T13:47:15;43.63;;;34.42;;
19535;SDS011;9913;51.168;4.124;2023-06-22T13:49:45;50.55;;;36.85;;
19535;SDS011;9913;51.168;4.124;2023-06-22T13:52:13;39.63;;;31.42;;
19535;SDS011;9913;51.168;4.124;2023-06-22T13:54:41;43.80;;;33.30;;
19535;SDS011;9913;51.168;4.124;2023-06-22T13:57:10;37.10;;;30.27;;
19535;SDS011;9913;51.168;4.124;2023-06-22T13:59:38;53.08;;;38.83;;
19535;SDS011;9913;51.168;4.124;2023-06-22T14:02:06;56.53;;;40.05;;
19535;SDS011;9913;51.168;4.124;2023-06-22T14:04:35;58.67;;;40.67;;
19535;SDS011;9913;51.168;4.124;2023-06-22T14:07:05;42.92;;;34.80;;
19535;SDS011;9913;51.168;4.124;2023-06-22T14:09:33;40.00;;;34.13;;
19535;SDS011;9913;51.168;4.124;2023-06-22T14:12:11;50.03;;;39.38;;
19535;SDS011;9913;51.168;4.124;2023-06-22T14:14:45;39.90;;;32.00;;
19535;SDS011;9913;51.168;4.124;2023-06-22T14:17:14;44.60;;;36.88;;
19535;SDS011;9913;51.168;4.124;2023-06-22T14:19:42;45.25;;;36.53;;
19535;SDS011;9913;51.168;4.124;2023-06-22T14:22:12;43.97;;;35.28;;
19535;SDS011;9913;51.168;4.124;2023-06-22T14:24:40;61.35;;;44.70;;
19535;SDS011;9913;51.168;4.124;2023-06-22T14:27:08;55.30;;;41.67;;
19535;SDS011;9913;51.168;4.124;2023-06-22T14:29:37;45.22;;;36.17;;
19535;SDS011;9913;51.168;4.124;2023-06-22T14:32:06;54.40;;;41.22;;
19535;SDS011;9913;51.168;4.124;2023-06-22T14:34:34;61.83;;;44.70;;
19535;SDS011;9913;51.168;4.124;2023-06-22T14:37:06;49.30;;;39.60;;
19535;SDS011;9913;51.168;4.124;2023-06-22T14:39:37;63.05;;;46.10;;
19535;SDS011;9913;51.168;4.124;2023-06-22T14:42:06;48.38;;;40.00;;
19535;SDS011;9913;51.168;4.124;2023-06-22T14:44:34;54.38;;;41.75;;
19535;SDS011;9913;51.168;4.124;2023-06-22T14:47:03;65.20;;;47.10;;
19535;SDS011;9913;51.168;4.124;2023-06-22T14:49:31;49.92;;;39.40;;
19535;SDS011;9913;51.168;4.124;2023-06-22T14:52:00;54.67;;;43.42;;
19535;SDS011;9913;51.168;4.124;2023-06-22T14:54:28;54.35;;;41.20;;